Time;durP1;ratioP1;P1;durP2;ratioP2;P2;SDS_P1;SDS_P2;PMS_P1;PMS_P2;Temp;Humidity;BMP_temperature;BMP_pressure;BME280_temperature;BME280_humidity;BME280_pressure;Samples;Min_cycle;Max_cycle;Signal;HPM_P1;HPM_P2
2023/04/15 00:02:22;;;;;;;8.35;3.40;;;;;;;;;;5108868;28;20390;-64
2023/04/15 00:04:49;;;;;;;11.15;3.80;;;;;;;;;;5106111;28;20043;-64
2023/04/15 00:07:16;;;;;;;16.17;5.13;;;;;;;;;;5107311;28;20406;-64
2023/04/15 00:09:44;;;;;;;12.30;3.80;;;;;;;;;;5105603;28;20047;-64
2023/04/15 00:12:12;;;;;;;10.25;3.47;;;;;;;;;;5107368;28;20070;-64
2023/04/15 00:14:39;;;;;;;13.52;4.07;;;;;;;;;;5106211;27;20075;-64
2023/04/15 00:17:07;;;;;;;12.00;4.00;;;;;;;;;;5105344;27;20491;-64
2023/04/15 00:19:35;;;;;;;12.90;4.82;;;;;;;;;;5104731;28;20109;-64
2023/04/15 00:22:02;;;;;;;9.30;4.00;;;;;;;;;;5107103;28;20058;-64
2023/04/15 00:24:30;;;;;;;16.30;3.42;;;;;;;;;;5107452;28;20043;-64
2023/04/15 00:26:57;;;;;;;14.77;3.88;;;;;;;;;;5104819;27;20100;-64
2023/04/15 00:29:25;;;;;;;12.80;4.00;;;;;;;;;;5108360;28;20130;-64
2023/04/15 00:31:52;;;;;;;11.52;4.15;;;;;;;;;;5108150;28;20403;-64
2023/04/15 00:34:20;;;;;;;13.32;4.07;;;;;;;;;;5106054;28;20179;-64
2023/04/15 00:36:48;;;;;;;12.32;4.88;;;;;;;;;;5105463;28;20048;-64
2023/04/15 00:39:16;;;;;;;10.45;4.80;;;;;;;;;;5104754;28;20063;-64
2023/04/15 00:41:44;;;;;;;10.95;4.15;;;;;;;;;;5106640;28;20139;-64
2023/04/15 00:44:11;;;;;;;11.52;4.53;;;;;;;;;;5107264;28;20050;-64
2023/04/15 00:46:39;;;;;;;11.90;4.88;;;;;;;;;;5111036;28;20100;-65
2023/04/15 00:49:07;;;;;;;13.40;5.10;;;;;;;;;;5107746;28;20360;-64
2023/04/15 00:51:36;;;;;;;11.75;4.65;;;;;;;;;;5106636;28;20050;-64
2023/04/15 00:54:05;;;;;;;13.23;4.75;;;;;;;;;;5107975;28;20162;-64
2023/04/15 00:56:36;;;;;;;16.35;5.85;;;;;;;;;;5105364;28;20047;-64
2023/04/15 00:59:05;;;;;;;8.68;4.88;;;;;;;;;;5106955;28;20529;-64
2023/04/15 01:01:32;;;;;;;10.48;4.85;;;;;;;;;;5106027;28;20071;-64
2023/04/15 01:03:59;;;;;;;10.27;5.20;;;;;;;;;;5104689;28;20050;-64
2023/04/15 01:06:27;;;;;;;13.98;5.70;;;;;;;;;;5104700;28;20059;-64
2023/04/15 01:08:54;;;;;;;13.18;5.63;;;;;;;;;;5105977;28;20109;-64
2023/04/15 01:11:24;;;;;;;12.38;5.38;;;;;;;;;;5110138;28;20043;-64
2023/04/15 01:13:51;;;;;;;13.25;5.15;;;;;;;;;;5110568;28;20098;-64
2023/04/15 01:16:19;;;;;;;11.60;5.68;;;;;;;;;;5112376;27;20062;-64
2023/04/15 01:18:46;;;;;;;9.80;5.50;;;;;;;;;;5111380;28;20044;-64
2023/04/15 01:21:14;;;;;;;15.10;6.05;;;;;;;;;;5107002;28;20062;-64
2023/04/15 01:23:41;;;;;;;13.30;6.35;;;;;;;;;;5109761;28;20063;-64
2023/04/15 01:26:10;;;;;;;9.65;5.07;;;;;;;;;;5108710;28;20043;-64
2023/04/15 01:28:38;;;;;;;15.35;6.10;;;;;;;;;;5106803;28;20063;-64
2023/04/15 01:31:08;;;;;;;11.63;6.00;;;;;;;;;;5110187;28;20079;-64
2023/04/15 01:33:36;;;;;;;15.00;5.88;;;;;;;;;;5105089;27;20089;-64
2023/04/15 01:36:03;;;;;;;9.82;5.65;;;;;;;;;;5100192;28;20050;-64
2023/04/15 01:38:32;;;;;;;12.00;6.03;;;;;;;;;;5109874;28;20052;-64
2023/04/15 01:40:59;;;;;;;12.75;6.10;;;;;;;;;;5100277;28;20468;-64
2023/04/15 01:43:28;;;;;;;11.15;6.57;;;;;;;;;;5106905;28;20048;-64
2023/04/15 01:45:55;;;;;;;13.50;6.50;;;;;;;;;;5114148;27;20099;-64
2023/04/15 01:48:23;;;;;;;15.43;7.65;;;;;;;;;;5106371;28;20581;-64
2023/04/15 01:50:51;;;;;;;11.77;6.95;;;;;;;;;;5108670;28;20044;-64
2023/04/15 01:53:18;;;;;;;11.23;6.55;;;;;;;;;;5109729;28;20505;-64
2023/04/15 01:55:45;;;;;;;15.25;7.70;;;;;;;;;;5101031;28;20382;-64
2023/04/15 01:58:13;;;;;;;12.48;6.53;;;;;;;;;;5109234;28;20506;-65
2023/04/15 02:00:42;;;;;;;13.45;6.55;;;;;;;;;;5105077;28;20170;-64
2023/04/15 02:03:10;;;;;;;9.85;6.13;;;;;;;;;;5106537;27;20083;-65
2023/04/15 02:05:37;;;;;;;16.27;7.25;;;;;;;;;;5105668;28;20047;-64
2023/04/15 02:08:04;;;;;;;16.45;7.05;;;;;;;;;;5109798;28;20055;-64
2023/04/15 02:10:32;;;;;;;11.30;6.30;;;;;;;;;;5108912;27;20542;-65
2023/04/15 02:12:59;;;;;;;13.45;6.50;;;;;;;;;;5108552;28;20066;-65
2023/04/15 02:15:26;;;;;;;15.82;6.93;;;;;;;;;;5106546;28;20525;-64
2023/04/15 02:17:55;;;;;;;11.20;6.88;;;;;;;;;;5104094;28;20055;-64
2023/04/15 02:20:23;;;;;;;13.48;8.10;;;;;;;;;;5102623;28;20113;-64
2023/04/15 02:22:50;;;;;;;15.80;7.18;;;;;;;;;;5103242;28;20043;-64
2023/04/15 02:25:17;;;;;;;19.85;6.93;;;;;;;;;;5104687;28;20043;-64
2023/04/15 02:27:45;;;;;;;17.58;8.07;;;;;;;;;;5103812;28;20048;-64
2023/04/15 02:30:12;;;;;;;14.73;7.80;;;;;;;;;;5102765;28;20051;-64
2023/04/15 02:32:39;;;;;;;14.98;7.63;;;;;;;;;;5105983;28;20467;-65
2023/04/15 02:35:09;;;;;;;14.80;8.15;;;;;;;;;;5106282;27;20475;-64
2023/04/15 02:37:40;;;;;;;14.98;8.07;;;;;;;;;;5104032;28;20517;-64
2023/04/15 02:40:09;;;;;;;16.50;8.90;;;;;;;;;;5108436;28;20050;-65
2023/04/15 02:42:36;;;;;;;20.90;8.88;;;;;;;;;;5108107;28;20066;-64
2023/04/15 02:45:03;;;;;;;15.35;8.82;;;;;;;;;;5103843;27;20116;-64
2023/04/15 02:47:31;;;;;;;15.50;9.02;;;;;;;;;;5103310;28;20040;-64
2023/04/15 02:49:59;;;;;;;19.50;9.23;;;;;;;;;;5096576;28;20058;-64
2023/04/15 02:52:28;;;;;;;16.45;10.02;;;;;;;;;;5108623;27;20498;-64
2023/04/15 02:54:59;;;;;;;15.45;9.05;;;;;;;;;;5108067;28;20036;-64
2023/04/15 02:57:26;;;;;;;19.05;9.15;;;;;;;;;;5105932;27;20072;-64
2023/04/15 02:59:54;;;;;;;18.73;10.18;;;;;;;;;;5106634;28;20089;-64
2023/04/15 03:02:21;;;;;;;13.35;8.52;;;;;;;;;;5107981;28;20508;-65
2023/04/15 03:04:48;;;;;;;14.15;8.95;;;;;;;;;;5104801;28;20061;-65
2023/04/15 03:07:16;;;;;;;13.80;9.40;;;;;;;;;;5105795;28;20047;-65
2023/04/15 03:09:44;;;;;;;14.85;9.35;;;;;;;;;;5103423;28;20070;-64
2023/04/15 03:12:11;;;;;;;20.15;9.48;;;;;;;;;;5101931;27;20110;-64
2023/04/15 03:14:39;;;;;;;15.77;9.68;;;;;;;;;;5108913;27;20048;-64
2023/04/15 03:17:06;;;;;;;16.00;10.05;;;;;;;;;;5109436;27;20059;-65
2023/04/15 03:19:34;;;;;;;17.98;9.80;;;;;;;;;;5108520;28;20753;-64
2023/04/15 03:22:01;;;;;;;14.43;8.70;;;;;;;;;;5108330;28;20051;-65
2023/04/15 03:24:29;;;;;;;15.57;9.40;;;;;;;;;;5105547;28;20039;-64
2023/04/15 03:26:57;;;;;;;17.50;9.25;;;;;;;;;;5109666;28;20409;-64
2023/04/15 03:29:25;;;;;;;19.20;9.55;;;;;;;;;;5103347;28;20537;-64
2023/04/15 03:31:53;;;;;;;17.90;9.68;;;;;;;;;;5107321;28;20048;-64
2023/04/15 03:34:20;;;;;;;17.90;9.70;;;;;;;;;;5108431;28;20384;-64
2023/04/15 03:36:48;;;;;;;17.23;10.07;;;;;;;;;;5108743;28;20039;-65
2023/04/15 03:39:15;;;;;;;18.40;10.52;;;;;;;;;;5107428;28;20047;-64
2023/04/15 03:41:42;;;;;;;16.27;9.32;;;;;;;;;;5108553;28;20043;-64
2023/04/15 03:44:11;;;;;;;15.73;9.73;;;;;;;;;;5108471;28;20047;-64
2023/04/15 03:46:38;;;;;;;15.07;9.18;;;;;;;;;;5107566;28;20067;-64
2023/04/15 03:49:07;;;;;;;14.00;9.65;;;;;;;;;;5108638;28;20051;-65
2023/04/15 03:51:34;;;;;;;19.92;10.13;;;;;;;;;;5100643;28;20048;-64
2023/04/15 03:54:02;;;;;;;17.02;9.77;;;;;;;;;;5104576;28;20130;-64
2023/04/15 03:56:29;;;;;;;14.57;9.88;;;;;;;;;;5103654;28;20092;-64
2023/04/15 03:58:56;;;;;;;18.92;9.88;;;;;;;;;;5107033;28;20302;-64
2023/04/15 04:01:25;;;;;;;15.27;9.60;;;;;;;;;;5107247;28;20047;-64
2023/04/15 04:03:52;;;;;;;18.13;9.20;;;;;;;;;;5103186;28;20047;-64
2023/04/15 04:06:19;;;;;;;21.75;10.52;;;;;;;;;;5104098;28;20059;-64
2023/04/15 04:08:46;;;;;;;18.85;10.32;;;;;;;;;;5102712;28;20048;-64
2023/04/15 04:11:14;;;;;;;20.00;9.68;;;;;;;;;;5100588;28;20506;-64
2023/04/15 04:13:41;;;;;;;15.70;9.90;;;;;;;;;;5105796;28;20379;-64
2023/04/15 04:16:08;;;;;;;17.52;10.05;;;;;;;;;;5107146;28;20052;-64
2023/04/15 04:18:37;;;;;;;15.95;9.23;;;;;;;;;;5098247;28;20468;-64
2023/04/15 04:21:04;;;;;;;17.98;10.07;;;;;;;;;;5097043;27;20053;-64
2023/04/15 04:23:32;;;;;;;16.23;10.20;;;;;;;;;;5101543;28;20495;-64
2023/04/15 04:25:59;;;;;;;17.88;9.48;;;;;;;;;;5100107;28;20143;-64
2023/04/15 04:28:26;;;;;;;14.30;9.55;;;;;;;;;;5107855;27;20051;-64
2023/04/15 04:30:53;;;;;;;15.10;10.02;;;;;;;;;;5106847;28;20421;-64
2023/04/15 04:33:20;;;;;;;20.40;11.25;;;;;;;;;;5107736;28;20052;-64
2023/04/15 04:35:49;;;;;;;16.98;9.70;;;;;;;;;;5105400;28;20418;-64
2023/04/15 04:38:16;;;;;;;17.42;10.70;;;;;;;;;;5107007;28;20565;-64
2023/04/15 04:40:44;;;;;;;16.55;10.60;;;;;;;;;;5106426;28;20058;-64
2023/04/15 04:43:11;;;;;;;20.33;11.43;;;;;;;;;;5102484;28;20055;-64
2023/04/15 04:45:38;;;;;;;16.30;10.35;;;;;;;;;;5113703;27;20050;-64
2023/04/15 04:48:07;;;;;;;16.35;10.35;;;;;;;;;;5109319;28;20059;-64
2023/04/15 04:50:35;;;;;;;19.67;10.73;;;;;;;;;;5106846;28;20055;-64
2023/04/15 04:53:04;;;;;;;19.70;11.18;;;;;;;;;;5110302;28;20418;-64
2023/04/15 04:55:31;;;;;;;17.48;11.13;;;;;;;;;;5106838;28;20066;-64
2023/04/15 04:57:59;;;;;;;17.70;11.18;;;;;;;;;;5109022;28;20059;-64
2023/04/15 05:00:26;;;;;;;16.40;10.20;;;;;;;;;;5111208;28;20491;-64
2023/04/15 05:02:53;;;;;;;17.98;10.85;;;;;;;;;;5104588;28;20051;-64
2023/04/15 05:05:20;;;;;;;17.58;10.93;;;;;;;;;;5112237;27;20043;-64
2023/04/15 05:07:49;;;;;;;20.33;10.27;;;;;;;;;;5107265;28;20523;-64
2023/04/15 05:10:18;;;;;;;18.52;11.15;;;;;;;;;;5107603;28;20051;-65
2023/04/15 05:12:45;;;;;;;17.88;11.30;;;;;;;;;;5105524;28;20079;-64
2023/04/15 05:15:12;;;;;;;20.25;11.90;;;;;;;;;;5102754;28;20490;-64
2023/04/15 05:17:39;;;;;;;21.52;11.50;;;;;;;;;;5109322;28;20047;-64
2023/04/15 05:20:10;;;;;;;17.30;10.93;;;;;;;;;;5109992;28;20064;-64
2023/04/15 05:22:37;;;;;;;18.10;11.60;;;;;;;;;;5103973;28;20051;-64
2023/04/15 05:25:05;;;;;;;20.35;11.18;;;;;;;;;;5108710;28;20060;-64
2023/04/15 05:27:34;;;;;;;18.17;11.15;;;;;;;;;;5107898;28;20066;-64
2023/04/15 05:30:01;;;;;;;20.25;11.48;;;;;;;;;;5106584;28;20051;-64
2023/04/15 05:32:28;;;;;;;18.65;11.70;;;;;;;;;;5109793;28;20039;-64
2023/04/15 05:34:56;;;;;;;20.17;11.38;;;;;;;;;;5111333;28;20048;-64
2023/04/15 05:37:23;;;;;;;19.30;12.18;;;;;;;;;;5110497;27;20398;-64
2023/04/15 05:39:50;;;;;;;22.65;12.07;;;;;;;;;;5109926;28;20044;-64
2023/04/15 05:42:18;;;;;;;17.92;10.35;;;;;;;;;;5109403;28;20056;-64
2023/04/15 05:44:46;;;;;;;15.38;9.98;;;;;;;;;;5110313;27;20050;-64
2023/04/15 05:47:14;;;;;;;17.08;9.93;;;;;;;;;;5107985;28;20054;-64
2023/04/15 05:49:41;;;;;;;16.48;9.82;;;;;;;;;;5104888;28;20044;-64
2023/04/15 05:52:09;;;;;;;17.85;9.98;;;;;;;;;;5108744;28;20101;-64
2023/04/15 05:54:36;;;;;;;18.23;8.55;;;;;;;;;;5108567;27;20053;-64
2023/04/15 05:57:03;;;;;;;13.82;8.10;;;;;;;;;;5105414;28;20091;-64
2023/04/15 05:59:30;;;;;;;15.60;8.07;;;;;;;;;;5109298;28;20529;-65
2023/04/15 06:01:59;;;;;;;9.48;6.70;;;;;;;;;;5109606;28;20051;-64
2023/04/15 06:04:26;;;;;;;11.20;6.70;;;;;;;;;;5107870;28;20040;-64
2023/04/15 06:06:54;;;;;;;8.73;5.70;;;;;;;;;;5110130;28;21651;-65
2023/04/15 06:09:21;;;;;;;10.55;5.93;;;;;;;;;;5108225;28;20516;-64
2023/04/15 06:11:49;;;;;;;13.88;6.28;;;;;;;;;;5110359;28;20448;-65
2023/04/15 06:14:16;;;;;;;10.50;5.93;;;;;;;;;;5103760;27;20402;-65
2023/04/15 06:16:43;;;;;;;25.73;15.40;;;;;;;;;;5108773;27;20054;-64
2023/04/15 06:19:13;;;;;;;41.70;21.48;;;;;;;;;;5106947;27;20402;-64
2023/04/15 06:21:40;;;;;;;27.85;14.02;;;;;;;;;;5108457;28;20054;-65
2023/04/15 06:24:07;;;;;;;14.70;8.55;;;;;;;;;;5102723;28;20051;-65
2023/04/15 06:26:35;;;;;;;17.08;9.85;;;;;;;;;;5109267;27;20599;-64
2023/04/15 06:29:02;;;;;;;11.88;8.05;;;;;;;;;;5105381;27;20048;-65
2023/04/15 06:31:29;;;;;;;15.75;8.98;;;;;;;;;;5095703;28;20048;-65
2023/04/15 06:33:57;;;;;;;16.30;8.52;;;;;;;;;;5100597;28;20086;-65
2023/04/15 06:36:25;;;;;;;16.27;9.18;;;;;;;;;;5107920;28;20063;-65
2023/04/15 06:38:52;;;;;;;15.93;10.10;;;;;;;;;;5106842;27;20066;-64
2023/04/15 06:41:20;;;;;;;21.35;11.05;;;;;;;;;;5108880;27;20055;-65
2023/04/15 06:43:47;;;;;;;20.10;10.70;;;;;;;;;;5108049;28;20043;-65
2023/04/15 06:46:14;;;;;;;18.02;11.48;;;;;;;;;;5110941;27;20050;-65
2023/04/15 06:48:41;;;;;;;20.33;11.80;;;;;;;;;;5102331;28;20066;-65
2023/04/15 06:51:09;;;;;;;22.13;11.45;;;;;;;;;;5106485;28;20126;-65
2023/04/15 06:53:39;;;;;;;22.33;11.75;;;;;;;;;;5108661;27;20522;-64
2023/04/15 06:56:08;;;;;;;24.98;12.27;;;;;;;;;;5105349;28;20048;-65
2023/04/15 06:58:35;;;;;;;21.88;12.48;;;;;;;;;;5107216;27;20047;-65
2023/04/15 07:01:03;;;;;;;18.77;11.93;;;;;;;;;;5106503;27;20510;-65
2023/04/15 07:03:30;;;;;;;18.63;12.05;;;;;;;;;;5105352;28;20149;-64
2023/04/15 07:05:57;;;;;;;17.48;11.95;;;;;;;;;;5104898;28;20044;-64
2023/04/15 07:08:25;;;;;;;19.83;12.15;;;;;;;;;;5104375;28;20514;-65
2023/04/15 07:10:54;;;;;;;19.65;12.18;;;;;;;;;;5107685;28;20118;-64
2023/04/15 07:13:21;;;;;;;18.25;10.32;;;;;;;;;;5106099;27;20403;-65
2023/04/15 07:15:48;;;;;;;16.42;9.82;;;;;;;;;;5101406;28;20049;-65
2023/04/15 07:18:15;;;;;;;13.48;8.63;;;;;;;;;;5108953;28;20054;-65
2023/04/15 07:20:43;;;;;;;12.75;8.45;;;;;;;;;;5107929;27;20070;-65
2023/04/15 07:23:10;;;;;;;15.77;7.82;;;;;;;;;;5104117;27;20130;-65
2023/04/15 07:25:38;;;;;;;8.35;6.05;;;;;;;;;;5106172;28;20055;-65
2023/04/15 07:28:06;;;;;;;14.43;5.75;;;;;;;;;;5103340;28;20820;-65
2023/04/15 07:30:34;;;;;;;8.90;5.40;;;;;;;;;;5108285;28;20113;-65
2023/04/15 07:33:02;;;;;;;11.32;5.65;;;;;;;;;;5107011;28;20118;-65
2023/04/15 07:35:29;;;;;;;10.25;6.20;;;;;;;;;;5107173;27;20126;-65
2023/04/15 07:37:57;;;;;;;10.25;5.78;;;;;;;;;;5105932;28;20499;-65
2023/04/15 07:40:24;;;;;;;8.95;5.60;;;;;;;;;;5107077;28;20053;-65
2023/04/15 07:42:51;;;;;;;9.45;5.40;;;;;;;;;;5108887;28;20040;-65
2023/04/15 07:45:20;;;;;;;9.20;5.13;;;;;;;;;;5109238;27;20490;-65
2023/04/15 07:47:47;;;;;;;8.65;5.05;;;;;;;;;;5106261;28;20044;-68
2023/04/15 07:50:16;;;;;;;7.72;4.30;;;;;;;;;;5105629;28;20039;-68
2023/04/15 07:52:43;;;;;;;9.40;4.95;;;;;;;;;;5106026;28;20051;-68
2023/04/15 07:55:11;;;;;;;15.52;5.22;;;;;;;;;;5102320;28;20044;-68
2023/04/15 07:57:39;;;;;;;7.88;4.60;;;;;;;;;;5106631;27;20411;-68
2023/04/15 08:00:07;;;;;;;9.15;4.82;;;;;;;;;;5106181;28;20054;-68
2023/04/15 08:02:36;;;;;;;7.22;3.65;;;;;;;;;;5092617;28;20534;-67
2023/04/15 08:05:03;;;;;;;7.10;4.05;;;;;;;;;;5100783;28;20522;-68
2023/04/15 08:07:31;;;;;;;8.20;3.30;;;;;;;;;;5102133;28;20134;-68
2023/04/15 08:09:58;;;;;;;4.53;3.00;;;;;;;;;;5099420;28;20044;-68
2023/04/15 08:12:26;;;;;;;7.60;3.25;;;;;;;;;;5107256;28;20418;-68
2023/04/15 08:14:53;;;;;;;6.22;3.40;;;;;;;;;;5105653;28;20051;-68
2023/04/15 08:17:20;;;;;;;7.90;3.20;;;;;;;;;;5105015;28;20055;-67
2023/04/15 08:19:49;;;;;;;5.78;2.95;;;;;;;;;;5106964;28;20167;-68
2023/04/15 08:22:16;;;;;;;6.93;3.72;;;;;;;;;;5103291;27;20059;-68
2023/04/15 08:24:44;;;;;;;6.25;3.17;;;;;;;;;;5102893;28;20047;-68
2023/04/15 08:27:12;;;;;;;7.97;3.40;;;;;;;;;;5107432;28;20387;-68
2023/04/15 08:29:40;;;;;;;6.72;3.40;;;;;;;;;;5105641;28;20100;-68
2023/04/15 08:32:07;;;;;;;6.43;3.20;;;;;;;;;;5106193;28;20072;-68
2023/04/15 08:34:35;;;;;;;6.90;3.05;;;;;;;;;;5108932;28;20047;-68
2023/04/15 08:37:03;;;;;;;6.30;3.05;;;;;;;;;;5106678;28;20457;-68
2023/04/15 08:39:31;;;;;;;7.55;3.15;;;;;;;;;;5108240;28;20073;-69
2023/04/15 08:42:01;;;;;;;4.30;2.40;;;;;;;;;;5107153;28;20088;-68
2023/04/15 08:44:30;;;;;;;10.20;2.95;;;;;;;;;;5106912;28;20047;-68
2023/04/15 08:46:57;;;;;;;12.90;3.33;;;;;;;;;;5105862;28;20048;-68
2023/04/15 08:49:28;;;;;;;8.43;3.40;;;;;;;;;;5108028;28;20043;-69
2023/04/15 08:51:56;;;;;;;7.38;3.30;;;;;;;;;;5106943;28;20124;-68
2023/04/15 08:54:25;;;;;;;7.57;3.53;;;;;;;;;;5107371;28;20411;-68
2023/04/15 08:56:53;;;;;;;5.97;3.30;;;;;;;;;;5105042;28;20069;-68
2023/04/15 08:59:21;;;;;;;7.80;3.25;;;;;;;;;;5102669;28;20090;-68
2023/04/15 09:01:48;;;;;;;7.15;3.28;;;;;;;;;;5107261;28;20078;-68
2023/04/15 09:04:17;;;;;;;7.30;3.35;;;;;;;;;;5107404;28;20483;-68
2023/04/15 09:06:44;;;;;;;6.65;3.35;;;;;;;;;;5104636;28;20048;-68
2023/04/15 09:09:14;;;;;;;6.30;3.05;;;;;;;;;;5104917;28;20079;-68
2023/04/15 09:11:42;;;;;;;6.72;3.10;;;;;;;;;;5111535;28;20140;-68
2023/04/15 09:14:10;;;;;;;8.43;2.97;;;;;;;;;;5106781;28;20132;-68
2023/04/15 09:16:55;;;;;;;6.30;3.00;;;;;;;;;;5105511;28;20040;-69
2023/04/15 09:19:23;;;;;;;5.70;2.38;;;;;;;;;;5106668;28;20046;-68
2023/04/15 09:21:51;;;;;;;4.93;2.58;;;;;;;;;;5108358;28;20342;-68
2023/04/15 09:24:19;;;;;;;3.97;2.15;;;;;;;;;;5102476;28;20043;-69
2023/04/15 09:26:47;;;;;;;6.95;2.63;;;;;;;;;;5107252;28;20066;-68
2023/04/15 09:29:15;;;;;;;4.32;2.50;;;;;;;;;;5100017;28;20060;-68
2023/04/15 09:31:42;;;;;;;5.45;2.67;;;;;;;;;;5110917;27;20047;-68
2023/04/15 09:34:10;;;;;;;4.03;2.10;;;;;;;;;;5105769;28;20133;-68
2023/04/15 09:36:52;;;;;;;8.15;2.15;;;;;;;;;;5101724;28;20166;-68
2023/04/15 09:39:19;;;;;;;7.20;2.53;;;;;;;;;;5108930;28;20047;-69
2023/04/15 09:41:48;;;;;;;5.57;2.53;;;;;;;;;;5110777;28;20600;-68
2023/04/15 09:44:25;;;;;;;5.57;2.20;;;;;;;;;;5111282;28;20056;-68
2023/04/15 09:46:52;;;;;;;7.20;2.33;;;;;;;;;;5105306;28;20505;-68
2023/04/15 09:49:20;;;;;;;5.03;2.17;;;;;;;;;;5105301;27;20048;-69
2023/04/15 09:51:48;;;;;;;4.38;2.00;;;;;;;;;;5103911;28;20044;-68
2023/04/15 09:54:20;;;;;;;6.32;2.15;;;;;;;;;;5107206;28;20067;-68
2023/04/15 09:56:48;;;;;;;7.78;2.60;;;;;;;;;;5106167;28;20080;-68
2023/04/15 09:59:16;;;;;;;7.43;2.08;;;;;;;;;;5106044;28;20587;-68
2023/04/15 10:01:43;;;;;;;6.75;2.25;;;;;;;;;;5110547;28;20642;-68
2023/04/15 10:04:11;;;;;;;4.38;2.60;;;;;;;;;;5105423;27;20050;-68
2023/04/15 10:06:38;;;;;;;5.47;2.25;;;;;;;;;;5105191;28;20054;-68
2023/04/15 10:09:06;;;;;;;6.13;2.00;;;;;;;;;;5108087;28;20079;-68
2023/04/15 10:11:34;;;;;;;4.22;1.67;;;;;;;;;;5106557;27;20071;-69
2023/04/15 10:14:03;;;;;;;5.85;1.67;;;;;;;;;;5108787;28;20051;-68
2023/04/15 10:16:33;;;;;;;5.38;1.70;;;;;;;;;;5114758;27;20470;-68
2023/04/15 10:19:03;;;;;;;4.53;1.70;;;;;;;;;;5109391;28;20051;-68
2023/04/15 10:21:31;;;;;;;4.78;1.48;;;;;;;;;;5110368;28;20054;-68
2023/04/15 10:23:59;;;;;;;5.63;1.63;;;;;;;;;;5103832;28;20058;-68
2023/04/15 10:26:27;;;;;;;4.13;1.85;;;;;;;;;;5108928;27;20042;-68
2023/04/15 10:28:54;;;;;;;4.45;1.20;;;;;;;;;;5108370;28;20063;-68
2023/04/15 10:31:23;;;;;;;2.45;1.20;;;;;;;;;;5111005;28;20067;-68
2023/04/15 10:33:51;;;;;;;5.20;1.30;;;;;;;;;;5108696;28;20078;-68
2023/04/15 10:36:19;;;;;;;3.42;0.85;;;;;;;;;;5109238;28;20112;-68
2023/04/15 10:38:46;;;;;;;3.38;1.13;;;;;;;;;;5108139;28;20043;-68
2023/04/15 10:41:15;;;;;;;3.33;1.10;;;;;;;;;;5108422;27;20079;-68
2023/04/15 10:43:46;;;;;;;6.72;1.60;;;;;;;;;;5108576;28;20495;-68
2023/04/15 10:46:13;;;;;;;5.10;1.00;;;;;;;;;;5108994;27;20562;-68
2023/04/15 10:48:49;;;;;;;2.58;0.90;;;;;;;;;;5110369;28;20043;-68
2023/04/15 10:51:16;;;;;;;5.63;1.00;;;;;;;;;;5104897;27;20052;-69
2023/04/15 10:53:43;;;;;;;3.95;1.00;;;;;;;;;;5107148;28;20058;-68
2023/04/15 10:56:11;;;;;;;7.50;1.30;;;;;;;;;;5108173;28;20055;-68
2023/04/15 10:58:44;;;;;;;3.50;1.15;;;;;;;;;;5101446;28;20138;-68
2023/04/15 11:01:12;;;;;;;3.25;1.13;;;;;;;;;;5100614;28;20056;-69
2023/04/15 11:03:40;;;;;;;6.32;1.30;;;;;;;;;;5100107;28;20048;-68
2023/04/15 11:06:09;;;;;;;6.07;1.38;;;;;;;;;;5103796;27;20048;-68
2023/04/15 11:08:57;;;;;;;7.30;1.23;;;;;;;;;;5109268;28;20148;-68
2023/04/15 11:11:24;;;;;;;5.53;1.30;;;;;;;;;;5101599;28;20566;-68
2023/04/15 11:13:53;;;;;;;3.50;1.08;;;;;;;;;;5109918;28;20050;-68
2023/04/15 11:16:20;;;;;;;4.00;0.90;;;;;;;;;;5106507;28;20397;-68
2023/04/15 11:18:54;;;;;;;3.67;1.00;;;;;;;;;;5109581;28;20691;-68
2023/04/15 11:21:25;;;;;;;3.00;1.20;;;;;;;;;;5102169;28;20087;-68
2023/04/15 11:23:52;;;;;;;4.57;0.93;;;;;;;;;;5105754;27;20048;-68
2023/04/15 11:26:19;;;;;;;4.45;1.23;;;;;;;;;;5106522;27;20050;-69
2023/04/15 11:28:46;;;;;;;3.97;1.20;;;;;;;;;;5106095;27;20147;-68
2023/04/15 11:31:15;;;;;;;9.02;1.73;;;;;;;;;;5105140;28;20052;-68
2023/04/15 11:33:48;;;;;;;3.97;1.23;;;;;;;;;;5105078;28;20047;-69
2023/04/15 11:36:15;;;;;;;;;;;;;;;;;;5106260;28;20055;-68
2023/04/15 11:38:48;;;;;;;6.25;1.10;;;;;;;;;;5103899;28;19926;-68
2023/04/15 11:41:16;;;;;;;4.80;1.55;;;;;;;;;;5103221;28;20160;-68
2023/04/15 11:43:43;;;;;;;9.85;1.48;;;;;;;;;;5108959;28;20807;-68
2023/04/15 11:46:10;;;;;;;8.95;2.13;;;;;;;;;;5105674;27;20054;-68
2023/04/15 11:48:37;;;;;;;6.40;2.40;;;;;;;;;;5109069;28;20426;-68
2023/04/15 11:51:05;;;;;;;6.95;1.25;;;;;;;;;;5107369;27;20052;-68
2023/04/15 11:53:40;;;;;;;9.75;1.30;;;;;;;;;;5100878;28;20056;-68
2023/04/15 11:56:09;;;;;;;7.75;1.42;;;;;;;;;;5102149;28;20074;-68
2023/04/15 11:58:38;;;;;;;8.40;1.40;;;;;;;;;;5103456;28;20128;-68
2023/04/15 12:01:05;;;;;;;10.80;1.70;;;;;;;;;;5107245;28;20075;-68
2023/04/15 12:03:37;;;;;;;8.30;1.50;;;;;;;;;;5102612;28;20051;-68
2023/04/15 12:06:12;;;;;;;7.68;1.58;;;;;;;;;;5105037;28;20044;-68
2023/04/15 12:08:58;;;;;;;6.82;1.55;;;;;;;;;;5104216;28;20579;-68
2023/04/15 12:11:32;;;;;;;6.43;1.30;;;;;;;;;;5107291;28;20047;-68
2023/04/15 12:14:00;;;;;;;11.70;1.48;;;;;;;;;;5107698;28;20059;-68
2023/04/15 12:16:28;;;;;;;9.02;1.30;;;;;;;;;;5107073;28;20043;-68
2023/04/15 12:18:57;;;;;;;8.40;1.13;;;;;;;;;;5106745;28;20047;-68
2023/04/15 12:21:26;;;;;;;7.65;1.23;;;;;;;;;;5103051;28;20043;-68
2023/04/15 12:23:54;;;;;;;6.80;1.38;;;;;;;;;;5103234;28;20048;-67
2023/04/15 12:26:27;;;;;;;7.68;1.15;;;;;;;;;;5101744;28;20071;-69
2023/04/15 12:28:56;;;;;;;6.43;1.50;;;;;;;;;;5104258;28;20450;-67
2023/04/15 12:31:23;;;;;;;7.30;1.10;;;;;;;;;;5103597;28;20100;-68
2023/04/15 12:33:51;;;;;;;8.90;1.25;;;;;;;;;;5108312;28;20056;-68
2023/04/15 12:36:18;;;;;;;5.63;1.10;;;;;;;;;;5107987;28;20039;-69
2023/04/15 12:38:45;;;;;;;9.02;1.75;;;;;;;;;;5102645;28;20043;-69
2023/04/15 12:41:12;;;;;;;12.15;1.15;;;;;;;;;;5107102;28;20418;-68
2023/04/15 12:43:41;;;;;;;11.50;1.30;;;;;;;;;;5107269;28;20135;-68
2023/04/15 12:46:09;;;;;;;8.05;1.40;;;;;;;;;;5108289;28;20071;-69
2023/04/15 12:48:37;;;;;;;7.57;1.25;;;;;;;;;;5105016;28;20054;-68
2023/04/15 12:51:04;;;;;;;10.63;2.38;;;;;;;;;;5108358;28;20471;-68
2023/04/15 12:53:31;;;;;;;13.38;1.50;;;;;;;;;;5105240;28;20075;-68
2023/04/15 12:55:59;;;;;;;11.38;1.27;;;;;;;;;;5100150;28;20677;-68
2023/04/15 12:58:26;;;;;;;11.55;1.48;;;;;;;;;;5104928;28;20097;-68
2023/04/15 13:00:53;;;;;;;12.80;1.63;;;;;;;;;;5106931;28;20066;-68
2023/04/15 13:03:22;;;;;;;11.10;1.60;;;;;;;;;;5105948;28;20054;-68
2023/04/15 13:05:49;;;;;;;15.02;1.92;;;;;;;;;;5109575;28;20055;-68
2023/04/15 13:08:16;;;;;;;21.38;2.28;;;;;;;;;;5100518;27;20490;-67
2023/04/15 13:10:44;;;;;;;10.20;1.50;;;;;;;;;;5111824;28;20122;-68
2023/04/15 13:13:11;;;;;;;10.32;1.42;;;;;;;;;;5107760;28;20101;-68
2023/04/15 13:15:38;;;;;;;10.80;1.25;;;;;;;;;;5111777;27;20050;-68
2023/04/15 13:18:06;;;;;;;8.50;1.52;;;;;;;;;;5110990;28;20655;-68
2023/04/15 13:20:34;;;;;;;15.93;2.50;;;;;;;;;;5110462;28;20066;-68
2023/04/15 13:23:02;;;;;;;11.55;1.65;;;;;;;;;;5110930;28;20506;-68
2023/04/15 13:25:29;;;;;;;12.77;1.55;;;;;;;;;;5109584;28;20502;-68
2023/04/15 13:27:57;;;;;;;10.57;1.25;;;;;;;;;;5109238;28;20096;-68
2023/04/15 13:30:24;;;;;;;11.05;1.67;;;;;;;;;;5111123;27;20079;-68
2023/04/15 13:32:52;;;;;;;7.97;1.20;;;;;;;;;;5108764;28;20050;-68
2023/04/15 13:35:20;;;;;;;22.40;2.03;;;;;;;;;;5108300;27;20055;-68
2023/04/15 13:37:49;;;;;;;7.75;1.08;;;;;;;;;;5109856;28;20126;-68
2023/04/15 13:40:16;;;;;;;10.75;1.35;;;;;;;;;;5106662;28;20120;-69
2023/04/15 13:42:43;;;;;;;9.95;1.20;;;;;;;;;;5111128;28;20100;-67
2023/04/15 13:45:11;;;;;;;6.43;1.33;;;;;;;;;;5111572;27;20056;-69
2023/04/15 13:47:38;;;;;;;11.45;1.13;;;;;;;;;;5108585;27;20044;-67
2023/04/15 13:50:06;;;;;;;6.93;1.10;;;;;;;;;;5105759;27;20046;-68
2023/04/15 13:52:33;;;;;;;11.40;1.38;;;;;;;;;;5109149;28;20048;-68
2023/04/15 13:55:02;;;;;;;11.18;1.58;;;;;;;;;;5105433;28;20043;-68
2023/04/15 13:57:29;;;;;;;12.70;1.60;;;;;;;;;;5098322;28;20044;-68
2023/04/15 13:59:57;;;;;;;9.93;2.05;;;;;;;;;;5107813;27;20451;-68
2023/04/15 14:02:24;;;;;;;12.25;1.77;;;;;;;;;;5101192;28;20542;-68
2023/04/15 14:04:52;;;;;;;12.98;1.50;;;;;;;;;;5107746;28;20047;-68
2023/04/15 14:07:19;;;;;;;7.28;1.23;;;;;;;;;;5107561;28;20050;-68
2023/04/15 14:09:47;;;;;;;11.18;1.33;;;;;;;;;;5108988;28;20074;-68
2023/04/15 14:12:15;;;;;;;11.52;1.67;;;;;;;;;;5109966;28;20090;-68
2023/04/15 14:14:42;;;;;;;13.88;1.83;;;;;;;;;;5108981;27;20047;-67
2023/04/15 14:17:10;;;;;;;9.68;1.20;;;;;;;;;;5110053;28;20643;-67
2023/04/15 14:19:37;;;;;;;7.00;1.25;;;;;;;;;;5105398;28;20094;-68
2023/04/15 14:22:04;;;;;;;10.30;1.75;;;;;;;;;;5110353;28;20053;-68
2023/04/15 14:24:32;;;;;;;13.43;1.50;;;;;;;;;;5107022;28;20478;-68
2023/04/15 14:27:00;;;;;;;8.57;1.40;;;;;;;;;;5110420;28;20047;-68
2023/04/15 14:29:29;;;;;;;10.10;1.13;;;;;;;;;;5104104;28;20375;-68
2023/04/15 14:31:57;;;;;;;12.27;1.67;;;;;;;;;;5108439;27;20096;-68
2023/04/15 14:34:25;;;;;;;13.02;1.48;;;;;;;;;;5110241;28;20055;-68
2023/04/15 14:36:52;;;;;;;10.65;1.15;;;;;;;;;;5109054;27;20050;-68
2023/04/15 14:39:20;;;;;;;6.75;0.90;;;;;;;;;;5109018;27;20580;-68